Historique des mesures à Cassis (13260), France
Quotidien Résumé Fevrier 21, 2018 Unités:  US    Métrique   Métrique/US
« Précédent (Jour)
Suivant (Jour) »
Quotidien Hebdomadaire Mensuel Annuel Période au choix
  Maximum: Minimum: Moyenne:
Température: 32 °F 39 °F 43.2 °F
Point de rosée: 32 °F 25.3 °F 30.7 °F
Humidité: Humidity % 50 % 59 %
Vitesse du vent: WindSpeedKMH mph 0.0 mph 5.5 mph
Rafales: WindSpeedGustKMH mph - -
Vent:- - West
Pression: 0 in 29.6 in -
Précipitations: 167.64 in    
Historical Graphs
 
 
Mesures pour : Fevrier 21, 2018
Heure Temperature Point de rosée Pression Vent Vitesse du vent Rafales Humidité Pluie (par heure) Conditions
32 °F 32 °F 0 in Calm     Humidity % 0 in SoftwareType W/m2
00:12 43.7 °F 27.1 °F 29.6 in Calm     52 % 0 in open2300-1.11 W/m2
01:12 42.6 °F 25.3 °F 29.6 in North 4.0 mph 5.0 mph 50 % 0 in open2300-1.11 W/m2
02:12 43.5 °F 26.2 °F 29.6 in NNE 3.2 mph 4.3 mph 50 % 0 in open2300-1.11 W/m2
03:12 43.5 °F 26.6 °F 29.6 in Calm   2.9 mph 51 % 0 in open2300-1.11 W/m2
04:12 42.1 °F 26.1 °F 29.6 in NNW 10.5 mph 11.6 mph 53 % 0 in open2300-1.11 W/m2
05:12 41.5 °F 26.1 °F 29.6 in WNW 2.1 mph 2.1 mph 54 % 0 in open2300-1.11 W/m2
06:12 42.4 °F 27.3 °F 29.6 in WNW 2.6 mph 2.6 mph 55 % 0 in open2300-1.11 W/m2
07:12 43 °F 32.4 °F 29.6 in Calm     66 % 0 in open2300-1.11 W/m2
08:12 39.4 °F 32.4 °F 29.6 in North 2.9 mph 2.9 mph 76 % 50.8 in open2300-1.11 W/m2
09:12 39 °F 33.1 °F 29.6 in Calm   3.2 mph 79 % 63.5 in open2300-1.11 W/m2
10:12 40.3 °F 34.5 °F 29.6 in NW 4.0 mph 7.2 mph 80 % 50.8 in open2300-1.11 W/m2
11:12 41.4 °F 35.6 °F 29.6 in NNW 7.6 mph 7.6 mph 80 % 0 in open2300-1.11 W/m2
12:12 44.8 °F 37.9 °F 29.6 in West 14.0 mph 14.0 mph 77 % 0 in open2300-1.11 W/m2
13:12 46.4 °F 38.1 °F 29.6 in NW 9.7 mph 23.0 mph 73 % 0 in open2300-1.11 W/m2
14:12 48 °F 37.2 °F 29.6 in WNW 23.0 mph 23.0 mph 66 % 0 in open2300-1.11 W/m2
15:12 48.7 °F 34.2 °F 29.6 in West 10.1 mph 21.6 mph 57 % 0 in open2300-1.11 W/m2
16:12 49.6 °F 33.3 °F 29.6 in NNW 7.2 mph 12.2 mph 53 % 0 in open2300-1.11 W/m2
17:12 49.6 °F 32.7 °F 29.6 in NW 3.5 mph 6.1 mph 52 % 0 in open2300-1.11 W/m2
18:12 46.8 °F 30.9 °F 29.6 in Calm   6.4 mph 54 % 0 in open2300-1.11 W/m2
19:12 44.1 °F 28.9 °F 29.6 in NNW 3.2 mph 6.4 mph 55 % 0 in open2300-1.11 W/m2
20:12 42.1 °F 28.2 °F 29.6 in West 7.9 mph 12.6 mph 58 % 0 in open2300-1.11 W/m2
21:12 41.5 °F 27.9 °F 29.6 in WNW 10.8 mph 10.8 mph 58 % 0 in open2300-1.11 W/m2
22:12 40.6 °F 28.2 °F 29.6 in NW 7.2 mph 7.6 mph 61 % 0 in open2300-1.11 W/m2
23:12 40.5 °F 28 °F 29.6 in NNW 5.0 mph 6.1 mph 61 % 0 in open2300-1.11 W/m2
Observations météo à CASSIS
WU-History script by Weather Underground - 1 mb